createdAt,value
2023-01-04T00:00:01.706Z,87.62817383
2023-01-04T00:01:02.714Z,87.93945313
2023-01-04T00:02:03.530Z,88.14086914
2023-01-04T00:03:05.834Z,88.14086914
2023-01-04T00:04:06.679Z,88.10424805
2023-01-04T00:05:07.480Z,87.89672852
2023-01-04T00:06:08.471Z,88.00048828
2023-01-04T00:07:10.476Z,88.10424805
2023-01-04T00:08:11.377Z,88.34838867
2023-01-04T00:09:12.319Z,88.34838867
2023-01-04T00:10:13.164Z,88.24462891
2023-01-04T00:11:13.915Z,88.34838867
2023-01-04T00:12:14.790Z,88.24462891
2023-01-04T00:13:15.678Z,88.2019043
2023-01-04T00:14:16.627Z,88.10424805
2023-01-04T00:15:17.491Z,88.2019043
2023-01-04T00:16:18.343Z,88.2019043
2023-01-04T00:17:19.702Z,88.14086914
2023-01-04T00:18:51.203Z,88.14086914
2023-01-04T00:19:52.061Z,88.14086914
2023-01-04T00:20:52.860Z,88.24462891
2023-01-04T00:21:54.216Z,88.2019043
2023-01-04T00:22:55.088Z,88.2019043
2023-01-04T00:23:56.058Z,88.2019043
2023-01-04T00:24:56.929Z,88.2019043
2023-01-04T00:25:57.783Z,88.30566406
2023-01-04T00:26:59.297Z,88.2019043
2023-01-04T00:28:00.108Z,88.2019043
2023-01-04T00:29:01.071Z,88.10424805
2023-01-04T00:30:02.049Z,88.10424805
2023-01-04T00:31:02.925Z,88.2019043
2023-01-04T00:32:04.293Z,88.2019043
2023-01-04T00:33:05.156Z,88.45214844
2023-01-04T00:34:06.021Z,88.45214844
2023-01-04T00:35:06.930Z,88.45214844
2023-01-04T00:36:07.882Z,88.40942383
2023-01-04T00:37:09.789Z,88.40942383
2023-01-04T00:38:10.560Z,88.40942383
2023-01-04T00:39:11.481Z,88.40942383
2023-01-04T00:40:12.472Z,88.40942383
2023-01-04T00:41:34.366Z,88.40942383
2023-01-04T00:42:14.197Z,88.40942383
2023-01-04T00:43:15.052Z,88.40942383
2023-01-04T00:44:16.086Z,88.30566406
2023-01-04T00:45:17.103Z,88.2019043
2023-01-04T00:46:18.080Z,88.00048828
2023-01-04T00:47:19.881Z,87.79296875
2023-01-04T00:48:55.225Z,87.79296875
2023-01-04T00:49:51.942Z,87.89672852
2023-01-04T00:50:52.856Z,87.79296875
2023-01-04T00:51:53.867Z,87.79296875
2023-01-04T00:52:54.740Z,87.79296875
2023-01-04T00:53:55.664Z,87.79296875
2023-01-04T00:54:56.556Z,87.89672852
2023-01-04T00:55:57.687Z,87.89672852
2023-01-04T00:56:59.446Z,88.00048828
2023-01-04T00:58:00.322Z,88.00048828
2023-01-04T00:59:01.345Z,87.89672852
2023-01-04T01:00:02.793Z,87.79296875
2023-01-04T01:01:03.606Z,87.89672852
2023-01-04T01:02:04.746Z,87.89672852
2023-01-04T01:03:06.638Z,87.89672852
2023-01-04T01:04:07.378Z,87.79296875
2023-01-04T01:05:08.025Z,87.79296875
2023-01-04T01:06:08.900Z,87.79296875
2023-01-04T01:07:10.342Z,87.68920898
2023-01-04T01:08:11.193Z,87.48779297
2023-01-04T01:09:12.027Z,87.3840332
2023-01-04T01:10:12.794Z,87.48779297
2023-01-04T01:11:13.632Z,87.3840332
2023-01-04T01:12:14.459Z,87.28027344
2023-01-04T01:13:15.274Z,86.96899414
2023-01-04T01:14:16.163Z,87.07275391
2023-01-04T01:15:17.044Z,87.3840332
2023-01-04T01:16:27.322Z,87.48779297
2023-01-04T01:17:19.327Z,87.58544922
2023-01-04T01:18:50.619Z,87.48779297
2023-01-04T01:19:51.625Z,87.68920898
2023-01-04T01:20:52.455Z,87.58544922
2023-01-04T01:21:53.468Z,87.58544922
2023-01-04T01:22:54.343Z,87.79296875
2023-01-04T01:23:55.146Z,87.68920898
2023-01-04T01:24:55.963Z,87.89672852
2023-01-04T01:25:56.856Z,88.03710938
2023-01-04T01:26:57.694Z,88.14086914
2023-01-04T01:27:59.237Z,88.03710938
2023-01-04T01:29:00.160Z,88.00048828
2023-01-04T01:30:00.996Z,88.00048828
2023-01-04T01:31:08.222Z,88.00048828
2023-01-04T01:32:02.782Z,87.73193359
2023-01-04T01:33:04.376Z,87.83569336
2023-01-04T01:34:05.200Z,88.03710938
2023-01-04T01:35:05.957Z,88.03710938
2023-01-04T01:36:06.851Z,88.03710938
2023-01-04T01:37:07.707Z,87.93945313
2023-01-04T01:38:09.227Z,88.03710938
2023-01-04T01:39:10.214Z,88.14086914
2023-01-04T01:40:11.044Z,88.14086914
2023-01-04T01:41:11.919Z,88.24462891
2023-01-04T01:42:12.740Z,88.03710938
2023-01-04T01:43:13.576Z,88.14086914
2023-01-04T01:44:14.382Z,88.14086914
2023-01-04T01:45:15.213Z,88.24462891
2023-01-04T01:46:16.237Z,88.34838867
2023-01-04T01:47:17.813Z,88.24462891
2023-01-04T01:48:19.114Z,88.45214844
2023-01-04T01:49:50.367Z,88.34838867
2023-01-04T01:50:51.203Z,88.14086914
2023-01-04T01:51:51.990Z,87.83569336
2023-01-04T01:52:52.803Z,87.83569336
2023-01-04T01:53:53.657Z,87.93945313
2023-01-04T01:54:54.513Z,87.83569336
2023-01-04T01:55:55.349Z,87.83569336
2023-01-04T01:56:56.145Z,87.62817383
2023-01-04T01:57:57.754Z,87.62817383
2023-01-04T01:58:58.576Z,87.83569336
2023-01-04T01:59:59.365Z,87.93945313
2023-01-04T02:01:00.319Z,88.03710938
2023-01-04T02:02:01.306Z,88.03710938
2023-01-04T02:03:02.138Z,88.14086914
2023-01-04T02:04:03.899Z,87.93945313
2023-01-04T02:05:04.467Z,88.03710938
2023-01-04T02:06:05.267Z,88.03710938
2023-01-04T02:07:06.150Z,87.93945313
2023-01-04T02:08:07.842Z,87.83569336
2023-01-04T02:09:08.826Z,87.52441406
2023-01-04T02:10:09.643Z,87.52441406
2023-01-04T02:11:10.438Z,87.73193359
2023-01-04T02:12:11.271Z,87.83569336
2023-01-04T02:13:12.060Z,87.83569336
2023-01-04T02:14:12.889Z,87.93945313
2023-01-04T02:15:13.687Z,87.83569336
2023-01-04T02:16:14.510Z,87.83569336
2023-01-04T02:17:15.286Z,87.83569336
2023-01-04T02:18:16.684Z,87.97607422
2023-01-04T02:19:17.492Z,88.18359375
2023-01-04T02:20:18.733Z,88.69628906
2023-01-04T02:21:49.922Z,88.80004883
2023-01-04T02:22:50.697Z,89.00756836
2023-01-04T02:23:51.463Z,89.21508789
2023-01-04T02:24:52.252Z,89.31274414
2023-01-04T02:25:53.015Z,89.52026367
2023-01-04T02:26:54.281Z,89.52026367
2023-01-04T02:27:55.794Z,89.7277832
2023-01-04T02:28:56.527Z,89.83154297
2023-01-04T02:29:57.623Z,89.83154297
2023-01-04T02:30:58.460Z,89.7277832
2023-01-04T02:31:59.254Z,89.52026367
2023-01-04T02:33:00.023Z,89.17236328
2023-01-04T02:34:01.702Z,88.75732422
2023-01-04T02:35:02.621Z,88.49487305
2023-01-04T02:36:03.379Z,88.5925293
2023-01-04T02:37:04.713Z,88.80004883
2023-01-04T02:38:06.166Z,88.96484375
2023-01-04T02:39:06.998Z,88.86108398
2023-01-04T02:40:07.918Z,88.69628906
2023-01-04T02:41:08.684Z,88.80004883
2023-01-04T02:42:10.324Z,89.00756836
2023-01-04T02:43:15.866Z,89.21508789
2023-01-04T02:44:11.984Z,89.41650391
2023-01-04T02:45:12.825Z,89.41650391
2023-01-04T02:46:13.687Z,89.62402344
2023-01-04T02:47:15.341Z,89.7277832
2023-01-04T02:48:16.774Z,89.7277832
2023-01-04T02:49:17.621Z,89.62402344
2023-01-04T02:50:49.061Z,89.21508789
2023-01-04T02:51:49.990Z,89.31274414
2023-01-04T02:52:50.736Z,89.62402344
2023-01-04T02:53:51.676Z,89.7277832
2023-01-04T02:54:52.465Z,89.83154297
2023-01-04T02:55:53.273Z,89.83154297
2023-01-04T02:56:55.467Z,89.93530273
2023-01-04T02:57:55.712Z,89.7277832
2023-01-04T02:58:57.537Z,89.52026367
2023-01-04T02:59:58.367Z,89.52026367
2023-01-04T03:00:59.198Z,89.41650391
2023-01-04T03:02:00.331Z,89.41650391
2023-01-04T03:03:01.843Z,89.27612305
2023-01-04T03:04:02.543Z,89.27612305
2023-01-04T03:05:03.327Z,89.06860352
2023-01-04T03:06:04.215Z,88.86108398
2023-01-04T03:07:05.077Z,88.65966797
2023-01-04T03:08:06.812Z,88.5559082
2023-01-04T03:09:07.700Z,88.34838867
2023-01-04T03:10:08.474Z,88.24462891
2023-01-04T03:11:09.362Z,88.34838867
2023-01-04T03:12:10.120Z,88.14086914
2023-01-04T03:13:10.895Z,88.14086914
2023-01-04T03:14:32.090Z,88.24462891
2023-01-04T03:15:12.608Z,88.34838867
2023-01-04T03:16:13.705Z,88.34838867
2023-01-04T03:17:15.299Z,88.34838867
2023-01-04T03:18:16.118Z,88.45214844
2023-01-04T03:19:17.135Z,88.24462891
2023-01-04T03:20:49.182Z,88.24462891
2023-01-04T03:21:50.063Z,88.14086914
2023-01-04T03:22:50.784Z,88.14086914
2023-01-04T03:23:51.562Z,88.03710938
2023-01-04T03:24:52.371Z,88.03710938
2023-01-04T03:25:53.176Z,87.89672852
2023-01-04T03:26:53.987Z,87.68920898
2023-01-04T03:27:54.847Z,87.48779297
2023-01-04T03:28:56.293Z,87.3840332
2023-01-04T03:29:57.095Z,87.3840332
2023-01-04T03:30:58.200Z,87.3840332
2023-01-04T03:31:59.091Z,87.3840332
2023-01-04T03:33:00.727Z,87.48779297
2023-01-04T03:34:01.504Z,87.52441406
2023-01-04T03:35:02.364Z,87.52441406
2023-01-04T03:36:03.143Z,87.4206543
2023-01-04T03:37:03.999Z,87.52441406
2023-01-04T03:38:05.327Z,87.73193359
2023-01-04T03:39:06.179Z,87.93945313
2023-01-04T03:40:06.935Z,88.03710938
2023-01-04T03:41:07.780Z,88.03710938
2023-01-04T03:42:08.666Z,87.93945313
2023-01-04T03:43:09.596Z,87.93945313
2023-01-04T03:44:10.485Z,87.83569336
2023-01-04T03:45:11.474Z,87.83569336
2023-01-04T03:46:12.319Z,87.73193359
2023-01-04T03:47:13.079Z,87.73193359
2023-01-04T03:48:14.337Z,87.62817383
2023-01-04T03:49:15.283Z,87.52441406
2023-01-04T03:50:16.310Z,87.52441406
2023-01-04T03:51:17.707Z,87.3840332
2023-01-04T03:52:48.928Z,87.28027344
2023-01-04T03:53:49.717Z,86.90795898
2023-01-04T03:54:50.771Z,86.90795898
2023-01-04T03:55:51.672Z,87.21923828
2023-01-04T03:56:52.593Z,87.4206543
2023-01-04T03:57:54.305Z,87.52441406
2023-01-04T03:58:55.149Z,87.52441406
2023-01-04T03:59:56.807Z,87.52441406
2023-01-04T04:00:57.834Z,87.62817383
2023-01-04T04:01:58.754Z,87.62817383
2023-01-04T04:02:59.494Z,87.62817383
2023-01-04T04:04:01.394Z,87.73193359
2023-01-04T04:05:02.401Z,87.62817383
2023-01-04T04:06:03.296Z,87.73193359
2023-01-04T04:07:04.314Z,87.73193359
2023-01-04T04:08:05.244Z,87.7746582
2023-01-04T04:09:06.752Z,87.97607422
2023-01-04T04:10:07.571Z,88.18359375
2023-01-04T04:11:08.449Z,88.53149414
2023-01-04T04:12:09.433Z,88.9465332
2023-01-04T04:13:10.397Z,89.05029297
2023-01-04T04:14:11.274Z,89.14794922
2023-01-04T04:15:12.112Z,89.35546875
2023-01-04T04:16:12.995Z,89.35546875
2023-01-04T04:17:13.852Z,89.56298828
2023-01-04T04:18:15.856Z,89.56298828
2023-01-04T04:19:16.746Z,89.25170898
2023-01-04T04:20:48.027Z,89.35546875
2023-01-04T04:21:48.988Z,89.41650391
2023-01-04T04:22:50.835Z,89.52026367
2023-01-04T04:23:51.735Z,89.21508789
2023-01-04T04:24:52.615Z,89.00756836
2023-01-04T04:25:53.425Z,89.00756836
2023-01-04T04:26:54.311Z,89.00756836
2023-01-04T04:27:55.231Z,88.90380859
2023-01-04T04:28:56.878Z,88.5925293
2023-01-04T04:29:57.697Z,88.49487305
2023-01-04T04:30:58.559Z,88.5925293
2023-01-04T04:31:59.480Z,88.5925293
2023-01-04T04:33:00.291Z,88.80004883
2023-01-04T04:34:02.032Z,88.90380859
2023-01-04T04:35:02.888Z,88.90380859
2023-01-04T04:36:03.711Z,88.90380859
2023-01-04T04:37:04.517Z,88.5925293
2023-01-04T04:38:05.411Z,88.5925293
2023-01-04T04:39:07.362Z,88.49487305
2023-01-04T04:40:08.417Z,88.5925293
2023-01-04T04:41:09.250Z,88.80004883
2023-01-04T04:42:10.158Z,89.00756836
2023-01-04T04:43:11.079Z,89.11132813
2023-01-04T04:44:12.002Z,89.35546875
2023-01-04T04:45:12.873Z,89.35546875
2023-01-04T04:46:13.921Z,89.56298828
2023-01-04T04:47:14.630Z,89.66674805
2023-01-04T04:48:15.812Z,89.66674805
2023-01-04T04:49:47.822Z,89.56298828
2023-01-04T04:50:48.769Z,89.62402344
2023-01-04T04:51:49.774Z,89.45922852
2023-01-04T04:52:55.779Z,89.41650391
2023-01-04T04:53:51.408Z,89.41650391
2023-01-04T04:54:52.394Z,89.00756836
2023-01-04T04:55:53.312Z,89.00756836
2023-01-04T04:56:54.233Z,89.00756836
2023-01-04T04:57:55.186Z,89.00756836
2023-01-04T04:58:56.734Z,88.90380859
2023-01-04T04:59:58.326Z,89.11132813
2023-01-04T05:00:59.233Z,89.00756836
2023-01-04T05:02:00.343Z,89.00756836
2023-01-04T05:03:01.291Z,89.11132813
2023-01-04T05:04:01.838Z,89.11132813
2023-01-04T05:05:02.617Z,89.14794922
2023-01-04T05:06:03.658Z,89.14794922
2023-01-04T05:07:10.631Z,89.25170898
2023-01-04T05:08:06.265Z,89.35546875
2023-01-04T05:09:07.730Z,89.56298828
2023-01-04T05:10:08.716Z,89.66674805
2023-01-04T05:11:09.668Z,89.77050781
2023-01-04T05:12:10.655Z,89.87426758
2023-01-04T05:13:11.584Z,89.83154297
2023-01-04T05:14:12.471Z,89.7277832
2023-01-04T05:15:13.301Z,89.31274414
2023-01-04T05:16:14.181Z,88.80004883
2023-01-04T05:17:15.040Z,88.5925293
2023-01-04T05:18:16.000Z,88.28735352
2023-01-04T05:19:48.274Z,88.53149414
2023-01-04T05:20:49.116Z,88.84277344
2023-01-04T05:21:49.955Z,89.05029297
2023-01-04T05:22:50.829Z,89.25170898
2023-01-04T05:23:51.912Z,89.45922852
2023-01-04T05:24:52.874Z,89.45922852
2023-01-04T05:25:53.731Z,89.45922852
2023-01-04T05:26:54.538Z,89.35546875
2023-01-04T05:27:56.371Z,89.25170898
2023-01-04T05:28:57.806Z,89.05029297
2023-01-04T05:29:58.658Z,88.73901367
2023-01-04T05:31:00.362Z,88.84277344
2023-01-04T05:32:01.322Z,88.9465332
2023-01-04T05:33:02.856Z,89.05029297
2023-01-04T05:34:03.794Z,89.05029297
2023-01-04T05:35:04.677Z,89.14794922
2023-01-04T05:36:05.594Z,89.25170898
2023-01-04T05:37:06.385Z,89.11132813
2023-01-04T05:38:08.296Z,89.11132813
2023-01-04T05:39:09.872Z,89.11132813
2023-01-04T05:40:10.848Z,89.11132813
2023-01-04T05:41:11.811Z,89.00756836
2023-01-04T05:42:12.689Z,88.90380859
2023-01-04T05:43:13.622Z,88.69628906
2023-01-04T05:44:14.557Z,88.69628906
2023-01-04T05:45:15.581Z,88.49487305
2023-01-04T05:46:47.125Z,88.34838867
2023-01-04T05:47:47.914Z,88.24462891
2023-01-04T05:48:49.341Z,87.83569336
2023-01-04T05:49:50.258Z,87.4206543
2023-01-04T05:50:51.167Z,87.31689453
2023-01-04T05:51:52.055Z,87.21923828
2023-01-04T05:52:53.744Z,87.4206543
2023-01-04T05:53:54.559Z,87.4206543
2023-01-04T05:54:55.609Z,87.52441406
2023-01-04T05:55:56.589Z,87.52441406
2023-01-04T05:56:57.728Z,87.31689453
2023-01-04T05:57:59.362Z,87.11547852
2023-01-04T05:59:00.819Z,86.39526367
2023-01-04T06:00:01.735Z,86.18774414
2023-01-04T06:01:02.610Z,86.18774414
2023-01-04T06:02:03.723Z,86.29150391
2023-01-04T06:03:04.591Z,86.29150391
2023-01-04T06:04:05.419Z,86.39526367
2023-01-04T06:05:06.823Z,86.6027832
2023-01-04T06:06:07.676Z,86.80419922
2023-01-04T06:07:08.573Z,86.6027832
2023-01-04T06:08:09.442Z,86.49902344
2023-01-04T06:09:11.355Z,86.70043945
2023-01-04T06:10:12.388Z,86.90795898
2023-01-04T06:11:13.179Z,86.90795898
2023-01-04T06:12:14.111Z,86.70043945
2023-01-04T06:13:15.136Z,86.6027832
2023-01-04T06:14:46.784Z,86.70043945
2023-01-04T06:15:47.631Z,86.80419922
2023-01-04T06:16:48.572Z,86.80419922
2023-01-04T06:17:49.506Z,86.90795898
2023-01-04T06:18:50.514Z,86.6027832
2023-01-04T06:19:52.424Z,86.49902344
2023-01-04T06:20:53.261Z,86.39526367
2023-01-04T06:21:54.062Z,86.39526367
2023-01-04T06:22:54.895Z,86.49902344
2023-01-04T06:23:55.844Z,86.6027832
2023-01-04T06:24:56.817Z,86.29150391
2023-01-04T06:25:57.752Z,86.08398438
2023-01-04T06:26:58.450Z,85.88256836
2023-01-04T06:27:59.260Z,85.77880859
2023-01-04T06:29:00.863Z,85.77880859
2023-01-04T06:30:01.792Z,85.67504883
2023-01-04T06:31:03.380Z,85.16235352
2023-01-04T06:32:04.073Z,85.26000977
2023-01-04T06:33:04.922Z,85.16235352
2023-01-04T06:34:05.774Z,85.16235352
2023-01-04T06:35:07.299Z,84.95483398
2023-01-04T06:36:08.244Z,84.85107422
2023-01-04T06:37:09.102Z,84.95483398
2023-01-04T06:38:09.910Z,85.05859375
2023-01-04T06:39:11.352Z,85.05859375
2023-01-04T06:40:12.392Z,85.05859375
2023-01-04T06:41:13.401Z,84.95483398
2023-01-04T06:42:14.316Z,84.95483398
2023-01-04T06:43:15.635Z,84.85107422
2023-01-04T06:44:47.180Z,84.85107422
2023-01-04T06:45:48.182Z,84.74731445
2023-01-04T06:46:49.130Z,84.74731445
2023-01-04T06:47:50.051Z,84.74731445
2023-01-04T06:48:50.872Z,84.53979492
2023-01-04T06:49:52.223Z,84.53979492
2023-01-04T06:50:53.079Z,84.64355469
2023-01-04T06:51:54.015Z,84.85107422
2023-01-04T06:52:54.976Z,84.85107422
2023-01-04T06:53:55.795Z,84.85107422
2023-01-04T06:54:56.635Z,84.74731445
2023-01-04T06:55:57.643Z,84.64355469
2023-01-04T06:56:58.883Z,84.64355469
2023-01-04T06:57:59.934Z,84.53979492
2023-01-04T06:59:00.700Z,84.74731445
2023-01-04T07:00:02.243Z,84.85107422
2023-01-04T07:01:03.169Z,84.85107422
2023-01-04T07:02:04.146Z,84.74731445
2023-01-04T07:03:14.145Z,84.74731445
2023-01-04T07:04:05.952Z,84.85107422
2023-01-04T07:05:07.328Z,84.95483398
2023-01-04T07:06:08.128Z,85.05859375
2023-01-04T07:07:09.011Z,84.95483398
2023-01-04T07:08:09.992Z,85.05859375
2023-01-04T07:09:10.916Z,84.95483398
2023-01-04T07:10:12.788Z,84.95483398
2023-01-04T07:11:13.616Z,85.05859375
2023-01-04T07:12:14.455Z,85.01586914
2023-01-04T07:13:46.109Z,84.91210938
2023-01-04T07:14:47.110Z,84.91210938
2023-01-04T07:15:48.017Z,84.81445313
2023-01-04T07:16:48.820Z,84.81445313
2023-01-04T07:17:49.620Z,84.81445313
2023-01-04T07:18:50.545Z,84.81445313
2023-01-04T07:19:52.357Z,84.81445313
2023-01-04T07:20:53.267Z,84.81445313
2023-01-04T07:21:54.755Z,84.81445313
2023-01-04T07:22:55.587Z,84.81445313
2023-01-04T07:23:56.660Z,84.81445313
2023-01-04T07:25:27.603Z,85.01586914
2023-01-04T07:26:58.898Z,85.11962891
2023-01-04T07:27:59.786Z,85.01586914
2023-01-04T07:29:00.656Z,85.11962891
2023-01-04T07:30:02.326Z,85.11962891
2023-01-04T07:31:03.395Z,84.91210938
2023-01-04T07:32:07.722Z,84.60693359
2023-01-04T07:33:05.506Z,84.60693359
2023-01-04T07:34:06.351Z,84.71069336
2023-01-04T07:35:07.837Z,84.60693359
2023-01-04T07:36:08.782Z,84.50317383
2023-01-04T07:37:09.792Z,83.67919922
2023-01-04T07:38:11.210Z,83.4777832
2023-01-04T07:39:12.157Z,83.4777832
2023-01-04T07:40:13.889Z,83.27026367
2023-01-04T07:41:45.695Z,83.27026367
2023-01-04T07:42:46.589Z,83.27026367
2023-01-04T07:43:47.452Z,83.37402344
2023-01-04T07:44:48.439Z,82.95898438
2023-01-04T07:45:49.764Z,82.95898438
2023-01-04T07:46:50.819Z,83.00170898
2023-01-04T07:47:51.696Z,83.30688477
2023-01-04T07:48:52.567Z,83.61816406
2023-01-04T07:49:54.334Z,83.92333984
2023-01-04T07:50:55.233Z,83.82568359
2023-01-04T07:51:56.145Z,83.92333984
2023-01-04T07:52:57.492Z,84.02709961
2023-01-04T07:53:58.576Z,83.92333984
2023-01-04T07:54:59.468Z,84.33837891
2023-01-04T07:56:00.386Z,85.36376953
2023-01-04T07:57:01.455Z,85.4675293
2023-01-04T07:58:02.427Z,85.22338867
2023-01-04T07:59:03.403Z,84.91210938
2023-01-04T08:00:04.718Z,84.71069336
2023-01-04T08:01:05.680Z,84.71069336
2023-01-04T08:02:07.468Z,84.60693359
2023-01-04T08:03:08.303Z,84.39941406
2023-01-04T08:04:09.168Z,83.99047852
2023-01-04T08:05:10.067Z,83.67919922
2023-01-04T08:06:10.835Z,83.06274414
2023-01-04T08:07:11.731Z,83.16650391
2023-01-04T08:08:12.679Z,83.4777832
2023-01-04T08:09:13.634Z,83.88671875
2023-01-04T08:10:45.701Z,84.09423828
2023-01-04T08:11:46.628Z,83.67919922
2023-01-04T08:12:47.564Z,83.67919922
2023-01-04T08:13:48.486Z,83.88671875
2023-01-04T08:14:49.414Z,83.67919922
2023-01-04T08:15:50.256Z,83.4777832
2023-01-04T08:16:51.035Z,83.41064453
2023-01-04T08:17:52.853Z,83.5144043
2023-01-04T08:18:53.737Z,83.61816406
2023-01-04T08:19:55.398Z,83.61816406
2023-01-04T08:20:58.580Z,83.41064453
2023-01-04T08:21:57.070Z,83.72192383
2023-01-04T08:22:58.223Z,84.02709961
2023-01-04T08:23:59.165Z,83.82568359
2023-01-04T08:25:00.039Z,83.82568359
2023-01-04T08:26:00.957Z,83.92333984
2023-01-04T08:27:01.862Z,83.5144043
2023-01-04T08:28:02.730Z,83.61816406
2023-01-04T08:29:03.645Z,83.61816406
2023-01-04T08:30:05.385Z,83.92333984
2023-01-04T08:31:06.476Z,83.92333984
2023-01-04T08:32:07.182Z,84.06982422
2023-01-04T08:33:08.012Z,84.16748047
2023-01-04T08:34:08.917Z,84.27124023
2023-01-04T08:35:09.959Z,84.47875977
2023-01-04T08:36:11.786Z,84.23461914
2023-01-04T08:37:12.699Z,83.72192383
2023-01-04T08:38:56.176Z,83.5144043
2023-01-04T08:39:48.928Z,83.61816406
2023-01-04T08:40:59.913Z,83.203125
2023-01-04T08:41:57.906Z,83.00170898
2023-01-04T08:42:49.079Z,83.00170898
2023-01-04T08:43:49.955Z,83.10546875
2023-01-04T08:44:57.130Z,82.75756836
2023-01-04T08:45:52.642Z,82.86132813
2023-01-04T08:46:53.645Z,82.86132813
2023-01-04T08:47:54.296Z,83.06274414
2023-01-04T08:48:55.061Z,83.16650391
2023-01-04T08:49:56.816Z,82.86132813
2023-01-04T08:50:57.842Z,82.44628906
2023-01-04T08:51:58.663Z,82.65380859
2023-01-04T08:53:00.306Z,82.75756836
2023-01-04T08:54:01.127Z,82.75756836
2023-01-04T08:55:05.520Z,82.86132813
2023-01-04T08:56:02.803Z,82.14111328
2023-01-04T08:57:03.660Z,81.62231445
2023-01-04T08:58:04.513Z,81.5246582
2023-01-04T08:59:05.422Z,81.42089844
2023-01-04T09:00:06.786Z,81.42089844
2023-01-04T09:01:07.767Z,81.5246582
2023-01-04T09:02:08.756Z,81.62231445
2023-01-04T09:03:10.471Z,81.93359375
2023-01-04T09:04:11.163Z,81.5246582
2023-01-04T09:05:22.886Z,81.82983398
2023-01-04T09:06:12.724Z,82.14111328
2023-01-04T09:07:14.091Z,81.62231445
2023-01-04T09:08:45.614Z,81.62231445
2023-01-04T09:09:46.460Z,81.62231445
2023-01-04T09:10:48.216Z,81.5246582
2023-01-04T09:11:49.167Z,81.31713867
2023-01-04T09:12:50.037Z,81.10961914
2023-01-04T09:13:50.905Z,81.00585938
2023-01-04T09:14:51.789Z,81.00585938
2023-01-04T09:15:52.741Z,81.48193359
2023-01-04T09:16:53.613Z,81.17675781
2023-01-04T09:18:30.562Z,80.76782227
2023-01-04T09:18:56.281Z,80.24902344
2023-01-04T09:19:57.397Z,79.94384766
2023-01-04T09:20:58.837Z,79.63256836
2023-01-04T09:22:00.262Z,79.22363281
2023-01-04T09:23:00.863Z,79.36401367
2023-01-04T09:24:01.899Z,79.53491211
2023-01-04T09:25:02.773Z,79.11987305
2023-01-04T09:26:09.134Z,79.11987305
2023-01-04T09:27:04.533Z,79.01611328
2023-01-04T09:28:05.708Z,79.01611328
2023-01-04T09:29:06.768Z,79.11987305
2023-01-04T09:30:08.325Z,79.22363281
2023-01-04T09:31:09.254Z,79.22363281
2023-01-04T09:32:16.320Z,79.43115234
2023-01-04T09:33:11.855Z,79.63256836
2023-01-04T09:34:15.288Z,79.73632813
2023-01-04T09:35:44.429Z,79.73632813
2023-01-04T09:36:45.277Z,79.94384766
2023-01-04T09:37:46.137Z,80.24902344
2023-01-04T09:38:47.159Z,80.3527832
2023-01-04T09:39:48.097Z,80.45654297
2023-01-04T09:40:49.733Z,80.3527832
2023-01-04T09:41:50.557Z,80.24902344
2023-01-04T09:42:51.440Z,80.41992188
2023-01-04T09:43:52.339Z,80.41992188
2023-01-04T09:45:23.666Z,80.31616211
2023-01-04T09:45:54.256Z,80.21240234
2023-01-04T09:46:55.230Z,80.01098633
2023-01-04T09:47:56.065Z,80.21240234
2023-01-04T09:48:56.906Z,80.31616211
2023-01-04T09:49:57.941Z,80.31616211
2023-01-04T09:50:59.860Z,80.31616211
2023-01-04T09:52:00.817Z,80.41992188
2023-01-04T09:53:01.591Z,80.62744141
2023-01-04T09:54:02.505Z,80.79223633
2023-01-04T09:55:37.824Z,80.68847656
2023-01-04T09:56:04.296Z,80.5847168
2023-01-04T09:57:05.145Z,80.38330078
2023-01-04T09:58:05.969Z,80.07202148
2023-01-04T09:59:06.832Z,79.87060547
2023-01-04T10:00:07.701Z,79.7668457
2023-01-04T10:01:09.578Z,79.7668457
2023-01-04T10:02:10.574Z,79.87060547
2023-01-04T10:03:11.310Z,80.17578125
2023-01-04T10:04:11.975Z,79.97436523
2023-01-04T10:05:13.917Z,80.17578125
2023-01-04T10:06:45.354Z,80.27954102
2023-01-04T10:07:46.785Z,79.7668457
2023-01-04T10:08:47.671Z,80.17578125
2023-01-04T10:09:48.500Z,79.87060547
2023-01-04T10:10:50.388Z,80.5847168
2023-01-04T10:11:51.345Z,80.38330078
2023-01-04T10:12:57.919Z,80.24291992
2023-01-04T10:13:53.202Z,79.83398438
2023-01-04T10:14:54.045Z,80.13916016
2023-01-04T10:15:55.173Z,80.13916016
2023-01-04T10:17:15.116Z,80.34667969
2023-01-04T10:19:17.070Z,80.65185547
2023-01-04T10:19:51.467Z,80.859375
2023-01-04T10:21:25.312Z,80.859375
2023-01-04T10:22:02.916Z,80.859375
2023-01-04T10:23:03.811Z,80.859375
2023-01-04T10:24:04.738Z,81.16455078
2023-01-04T10:25:06.359Z,81.12792969
2023-01-04T10:26:07.332Z,81.33544922
2023-01-04T10:27:08.179Z,80.92041016
2023-01-04T10:28:09.092Z,80.71899414
2023-01-04T10:29:10.096Z,80.92041016
2023-01-04T10:30:10.746Z,81.23168945
2023-01-04T10:31:38.666Z,81.33544922
2023-01-04T10:32:44.865Z,81.39648438
2023-01-04T10:33:45.804Z,81.19506836
2023-01-04T10:34:46.707Z,80.7800293
2023-01-04T10:35:47.507Z,80.68237305
2023-01-04T10:36:48.317Z,80.37109375
2023-01-04T10:37:49.870Z,80.37109375
2023-01-04T10:38:50.769Z,80.16967773
2023-01-04T10:39:51.609Z,80.16967773
2023-01-04T10:40:53.316Z,80.26733398
2023-01-04T10:41:54.156Z,80.57861328
2023-01-04T10:42:55.140Z,80.57861328
2023-01-04T10:44:10.598Z,80.57861328
2023-01-04T10:44:59.063Z,80.88378906
2023-01-04T10:45:58.279Z,80.7800293
2023-01-04T10:46:59.054Z,80.47485352
2023-01-04T10:48:00.204Z,80.57861328
2023-01-04T10:49:01.244Z,80.37109375
2023-01-04T10:50:02.228Z,80.26733398
2023-01-04T10:51:09.914Z,80.37109375
2023-01-04T10:52:04.690Z,80.7800293
2023-01-04T10:53:05.701Z,80.88378906
2023-01-04T10:54:06.595Z,81.46362305
2023-01-04T10:55:07.546Z,81.60400391
2023-01-04T10:56:25.259Z,80.84716797
2023-01-04T10:57:09.221Z,80.13305664
2023-01-04T10:58:10.151Z,80.13305664
2023-01-04T10:59:11.059Z,80.02929688
2023-01-04T11:00:11.948Z,80.23071289
2023-01-04T11:01:44.295Z,80.63964844
2023-01-04T11:02:46.067Z,80.88378906
2023-01-04T11:03:47.297Z,81.19506836
2023-01-04T11:04:48.029Z,81.70776367
2023-01-04T11:05:49.309Z,82.31811523
2023-01-04T11:06:51.060Z,82.31811523
2023-01-04T11:07:51.901Z,82.48901367
2023-01-04T11:08:52.804Z,82.48901367
2023-01-04T11:09:53.670Z,82.01293945
2023-01-04T11:10:55.377Z,82.01293945
2023-01-04T11:11:56.357Z,81.60400391
2023-01-04T11:12:57.475Z,81.39648438
2023-01-04T11:13:58.333Z,81.60400391